Springfield, Vermont
Current Conditions -  °F | °C
As of 12:54 AM on Sunday 23 Nov 2014 (Local Time) from KVSF Reporting Station
Overcast Overcast  
Wind Chill: 35°   Ceiling: 2600
Heat Index: 39°   Visibility: 10mi
Dew Point: 25°   Wind: 6mph
Humidity: 57%   Direction: 130°SE
Pressure: 30.01"   Gusts: NA
Location:  43.3°N, 72.48°W
Report Text: KVSF 230554Z AUTO 13005KT 10SM OVC026 04/M04 A3001 RMK AO2 SLP168 T00391039 10061 21006 53000
Loading
Personal Weather Stations






























Interactive Weather Map New forecast layout! Learn more

10-Day Weather Forecast

Advertisements
Track Severe Weather on mobile